Tuesday, October 21, 2014, 4:41 AM EDT

KRDG, Reading Regional Airport

Location: Reading, PA, United States Lat: 40.367
Local Time: 4:41 AM EDT ( 8:41 GMT) Lon: -75.967
Time Zone: US/Eastern Elev: 344 ft

Show me the last for .
Show Decoded

2014-10-21 03:54 METAR KRDG 210754Z AUTO 00000KT 10SM -RA FEW048 BKN070 OVC110 12/10 A2986 RMK
                 AO2 SLP117 P0002 T01170100 =
2014-10-21 02:54 METAR KRDG 210654Z AUTO 13003KT 10SM -RA FEW028 FEW055 OVC070 12/11 A2989 RMK
                 AO2 SLP128 P0002 T01170106 =
2014-10-21 01:54 METAR KRDG 210554Z AUTO 27003KT 10SM -RA BKN065 OVC095 13/09 A2991 RMK AO2
                 RAE0455B16 SLP132 P0001 60001 T01280089 10139 20128 56013 =
2014-10-21 00:54 METAR KRDG 210454Z AUTO 13003KT 10SM -RA OVC085 13/09 A2991 RMK AO2 RAB46 SLP133
                 P0000 T01280089 401670017 =
2014-10-20 23:54 METAR KRDG 210354Z AUTO 17008KT 10SM FEW055 OVC070 13/09 A2992 RMK AO2 RAE46
                 SLP137 P0000 T01330089 =
2014-10-20 22:54 METAR KRDG 210254Z AUTO 19005KT 10SM -RA SCT046 BKN080 OVC090 14/07 A2995 RMK
                 AO2 RAB51 SLP146 P0000 60000 T01390072 53001 =
2014-10-20 21:54 METAR KRDG 210154Z AUTO 00000KT 10SM OVC090 14/07 A2994 RMK AO2 SLP145 T01390067
                 =
2014-10-20 20:54 METAR KRDG 210054Z AUTO 18004KT 10SM OVC110 14/06 A2994 RMK AO2 SLP145 T01390061
                 =
2014-10-20 19:54 METAR KRDG 202354Z AUTO 00000KT 10SM CLR 14/06 A2994 RMK AO2 SLP146 T01390056
                 10167 20133 56003 =
2014-10-20 18:54 METAR KRDG 202254Z AUTO 17004KT 10SM CLR 14/06 A2995 RMK AO2 SLP147 T01390056 =
2014-10-20 17:54 METAR KRDG 202154Z AUTO 18004KT 10SM CLR 14/06 A2995 RMK AO2 SLP146 T01440056 =
2014-10-20 16:54 METAR KRDG 202054Z AUTO 19009G15KT 10SM CLR 15/05 A2995 RMK AO2 SLP149 T01500050
                 56015 =
2014-10-20 15:54 METAR KRDG 201954Z AUTO 19009KT 10SM CLR 16/05 A2995 RMK AO2 SLP149 T01560050 =
2014-10-20 14:54 METAR KRDG 201854Z AUTO 21010KT 10SM CLR 16/04 A2997 RMK AO2 SLP153 T01610044 =
2014-10-20 13:54 METAR KRDG 201754Z 21011KT 10SM CLR 16/04 A3000 RMK AO2 SLP165 T01560039 10156
                 20022 58032 =
2014-10-20 12:54 METAR KRDG 201654Z 21009KT 10SM CLR 15/04 A3003 RMK AO2 SLP175 T01500039 =
2014-10-20 11:54 METAR KRDG 201554Z 31003KT 10SM CLR 13/04 A3007 RMK AO2 SLP190 T01280039 =
2014-10-20 10:54 METAR KRDG 201454Z 00000KT 10SM CLR 09/02 A3009 RMK AO2 SLP197 T00890022 58000 =
2014-10-20 09:54 METAR KRDG 201354Z 00000KT 10SM CLR 06/02 A3011 RMK AO2 SLP202 T00610022 =
2014-10-20 08:54 METAR KRDG 201254Z 00000KT 10SM CLR 04/01 A3011 RMK AO2 SLP203 T00440011 =
2014-10-20 07:54 METAR KRDG 201154Z 00000KT 10SM CLR 02/01 A3010 =
2014-10-20 06:54 METAR KRDG 201054Z 00000KT 10SM CLR 02/M01 A3010 RMK AO2 SLP199 T00221006 =
2014-10-20 05:54 METAR KRDG 200954Z 00000KT 10SM CLR 03/00 A3009 RMK AO2 SLP194 T00280000 =
2014-10-20 04:54 METAR KRDG 200854Z AUTO 00000KT 10SM CLR 03/01 A3009 RMK AO2 SLP194 T00330011
                 55000 =

Support USWX by starting your Amazon purchase here.